sensor_id;sensor_type;location;lat;lon;timestamp;pressure;altitude;pressure_sealevel;temperature;humidity
59240;BME280;45010;53.640;10.578;2024-02-14T00:01:49;100924.13;;;27.79;29.28
59240;BME280;45010;53.640;10.578;2024-02-14T00:04:50;100919.59;;;27.80;28.93
59240;BME280;45010;53.640;10.578;2024-02-14T00:07:51;100917.72;;;27.81;28.99
59240;BME280;45010;53.640;10.578;2024-02-14T00:10:51;100905.88;;;27.76;29.33
59240;BME280;45010;53.640;10.578;2024-02-14T00:13:51;100913.97;;;27.82;28.82
59240;BME280;45010;53.640;10.578;2024-02-14T00:16:51;100912.38;;;27.81;28.94
59240;BME280;45010;53.640;10.578;2024-02-14T00:19:52;100905.94;;;27.82;29.24
59240;BME280;45010;53.640;10.578;2024-02-14T00:22:52;100907.81;;;27.81;28.88
59240;BME280;45010;53.640;10.578;2024-02-14T00:25:52;100908.63;;;27.82;29.27
59240;BME280;45010;53.640;10.578;2024-02-14T00:28:53;100904.88;;;27.83;29.01
59240;BME280;45010;53.640;10.578;2024-02-14T00:31:53;100904.88;;;27.83;28.93
59240;BME280;45010;53.640;10.578;2024-02-14T00:34:53;100895.78;;;27.84;29.13
59240;BME280;45010;53.640;10.578;2024-02-14T00:37:54;100906.50;;;27.84;28.79
59240;BME280;45010;53.640;10.578;2024-02-14T00:40:54;100906.50;;;27.84;29.17
59240;BME280;45010;53.640;10.578;2024-02-14T00:43:58;100884.19;;;27.78;29.16
59240;BME280;45010;53.640;10.578;2024-02-14T00:46:58;100899.00;;;27.86;29.08
59240;BME280;45010;53.640;10.578;2024-02-14T00:50:03;100896.00;;;27.82;28.87
59240;BME280;45010;53.640;10.578;2024-02-14T00:53:03;100890.97;;;27.86;29.06
59240;BME280;45010;53.640;10.578;2024-02-14T00:56:04;100887.19;;;27.82;28.77
59240;BME280;45010;53.640;10.578;2024-02-14T00:59:04;100877.25;;;27.82;28.73
59240;BME280;45010;53.640;10.578;2024-02-14T01:02:04;100872.72;;;27.83;28.94
59240;BME280;45010;53.640;10.578;2024-02-14T01:05:05;100878.09;;;27.83;28.96
59240;BME280;45010;53.640;10.578;2024-02-14T01:08:05;100881.81;;;27.82;29.14
59240;BME280;45010;53.640;10.578;2024-02-14T01:11:07;100879.94;;;27.82;29.11
59240;BME280;45010;53.640;10.578;2024-02-14T01:14:08;100877.25;;;27.82;29.11
59240;BME280;45010;53.640;10.578;2024-02-14T01:17:08;100878.09;;;27.83;28.93
59240;BME280;45010;53.640;10.578;2024-02-14T01:20:09;100876.22;;;27.83;28.53
59240;BME280;45010;53.640;10.578;2024-02-14T01:23:09;100864.63;;;27.77;28.82
59240;BME280;45010;53.640;10.578;2024-02-14T01:26:10;100871.66;;;27.84;28.62
59240;BME280;45010;53.640;10.578;2024-02-14T01:29:10;100851.16;;;27.72;28.77
59240;BME280;45010;53.640;10.578;2024-02-14T01:32:10;100862.00;;;27.83;28.61
59240;BME280;45010;53.640;10.578;2024-02-14T01:35:11;100859.25;;;27.77;28.56
59240;BME280;45010;53.640;10.578;2024-02-14T01:38:11;100861.38;;;27.75;28.69
59240;BME280;45010;53.640;10.578;2024-02-14T01:41:12;100858.13;;;27.73;28.52
59240;BME280;45010;53.640;10.578;2024-02-14T01:44:16;100857.03;;;27.69;28.88
59240;BME280;45010;53.640;10.578;2024-02-14T01:47:17;100838.19;;;27.64;28.49
59240;BME280;45010;53.640;10.578;2024-02-14T01:50:19;100838.69;;;27.61;28.48
59240;BME280;45010;53.640;10.578;2024-02-14T01:53:28;100833.22;;;27.56;28.99
59240;BME280;45010;53.640;10.578;2024-02-14T01:56:31;100825.16;;;27.50;28.55
59240;BME280;45010;53.640;10.578;2024-02-14T01:59:32;100834.81;;;27.51;28.58
59240;BME280;45010;53.640;10.578;2024-02-14T02:02:35;100815.84;;;27.36;29.02
59240;BME280;45010;53.640;10.578;2024-02-14T02:05:41;100822.34;;;27.40;28.77
59240;BME280;45010;53.640;10.578;2024-02-14T02:08:45;100810.94;;;27.28;29.11
59240;BME280;45010;53.640;10.578;2024-02-14T02:11:49;100829.00;;;27.37;29.09
59240;BME280;45010;53.640;10.578;2024-02-14T02:14:50;100826.00;;;27.34;29.09
59240;BME280;45010;53.640;10.578;2024-02-14T02:17:50;100819.50;;;27.30;28.82
59240;BME280;45010;53.640;10.578;2024-02-14T02:20:53;100817.34;;;27.26;29.13
59240;BME280;45010;53.640;10.578;2024-02-14T02:23:53;100826.91;;;27.22;29.27
59240;BME280;45010;53.640;10.578;2024-02-14T02:26:53;100823.69;;;27.20;28.85
59240;BME280;45010;53.640;10.578;2024-02-14T02:29:55;100820.94;;;27.15;28.97
59240;BME280;45010;53.640;10.578;2024-02-14T02:32:55;100819.31;;;27.14;29.30
59240;BME280;45010;53.640;10.578;2024-02-14T02:35:55;100816.56;;;27.09;29.34
59240;BME280;45010;53.640;10.578;2024-02-14T02:38:56;100813.56;;;27.05;28.91
59240;BME280;45010;53.640;10.578;2024-02-14T02:41:58;100812.19;;;27.03;29.23
59240;BME280;45010;53.640;10.578;2024-02-14T02:44:59;100806.25;;;27.01;29.36
59240;BME280;45010;53.640;10.578;2024-02-14T02:47:59;100805.94;;;26.97;29.05
59240;BME280;45010;53.640;10.578;2024-02-14T02:51:01;100804.56;;;26.94;29.47
59240;BME280;45010;53.640;10.578;2024-02-14T02:54:01;100803.44;;;26.90;29.38
59240;BME280;45010;53.640;10.578;2024-02-14T02:57:02;100796.44;;;26.89;29.42
59240;BME280;45010;53.640;10.578;2024-02-14T03:00:08;100792.66;;;26.85;29.51
59240;BME280;45010;53.640;10.578;2024-02-14T03:03:08;100798.47;;;26.82;29.43
59240;BME280;45010;53.640;10.578;2024-02-14T03:06:09;100784.53;;;26.80;29.58
59240;BME280;45010;53.640;10.578;2024-02-14T03:09:09;100786.06;;;26.76;29.66
59240;BME280;45010;53.640;10.578;2024-02-14T03:12:09;100789.81;;;26.75;29.46
59240;BME280;45010;53.640;10.578;2024-02-14T03:15:10;100784.97;;;26.71;29.68
59240;BME280;45010;53.640;10.578;2024-02-14T03:18:10;100780.91;;;26.69;29.14
59240;BME280;45010;53.640;10.578;2024-02-14T03:21:11;100776.84;;;26.66;29.35
59240;BME280;45010;53.640;10.578;2024-02-14T03:24:12;100772.78;;;26.64;29.70
59240;BME280;45010;53.640;10.578;2024-02-14T03:27:12;100768.75;;;26.61;29.37
59240;BME280;45010;53.640;10.578;2024-02-14T03:30:13;100761.19;;;26.58;29.75
59240;BME280;45010;53.640;10.578;2024-02-14T03:33:16;100762.25;;;26.57;29.64
59240;BME280;45010;53.640;10.578;2024-02-14T03:36:16;100755.28;;;26.56;29.55
59240;BME280;45010;53.640;10.578;2024-02-14T03:39:17;100751.22;;;26.53;29.52
59240;BME280;45010;53.640;10.578;2024-02-14T03:42:17;100754.97;;;26.52;29.39
59240;BME280;45010;53.640;10.578;2024-02-14T03:45:18;100751.47;;;26.52;29.75
59240;BME280;45010;53.640;10.578;2024-02-14T03:48:18;100751.97;;;26.49;30.05
59240;BME280;45010;53.640;10.578;2024-02-14T03:51:18;100752.44;;;26.45;29.71
59240;BME280;45010;53.640;10.578;2024-02-14T03:54:20;100739.91;;;26.46;29.75
59240;BME280;45010;53.640;10.578;2024-02-14T03:57:20;100740.13;;;26.44;29.49
59240;BME280;45010;53.640;10.578;2024-02-14T04:00:21;100732.59;;;26.41;29.91
59240;BME280;45010;53.640;10.578;2024-02-14T04:03:22;100741.66;;;26.40;29.78
59240;BME280;45010;53.640;10.578;2024-02-14T04:06:22;100723.88;;;26.29;29.68
59240;BME280;45010;53.640;10.578;2024-02-14T04:09:23;100731.47;;;26.37;29.69
59240;BME280;45010;53.640;10.578;2024-02-14T04:12:23;100731.47;;;26.37;29.75
59240;BME280;45010;53.640;10.578;2024-02-14T04:15:23;100732.53;;;26.36;29.94
59240;BME280;45010;53.640;10.578;2024-02-14T04:18:24;100738.94;;;26.35;29.50
59240;BME280;45010;53.640;10.578;2024-02-14T04:21:24;100738.94;;;26.35;29.66
59240;BME280;45010;53.640;10.578;2024-02-14T04:24:25;100731.16;;;26.34;29.93
59240;BME280;45010;53.640;10.578;2024-02-14T04:27:25;100730.31;;;26.33;29.64
59240;BME280;45010;53.640;10.578;2024-02-14T04:30:27;100716.63;;;26.29;30.09
59240;BME280;45010;53.640;10.578;2024-02-14T04:33:27;100719.63;;;26.33;29.92
59240;BME280;45010;53.640;10.578;2024-02-14T04:36:28;100715.34;;;26.32;29.82
59240;BME280;45010;53.640;10.578;2024-02-14T04:39:30;100713.72;;;26.31;30.05
59240;BME280;45010;53.640;10.578;2024-02-14T04:42:30;100704.09;;;26.30;29.83
59240;BME280;45010;53.640;10.578;2024-02-14T04:45:30;100699.53;;;26.30;29.90
59240;BME280;45010;53.640;10.578;2024-02-14T04:48:31;100701.41;;;26.30;29.95
59240;BME280;45010;53.640;10.578;2024-02-14T04:51:31;100702.47;;;26.29;29.45
59240;BME280;45010;53.640;10.578;2024-02-14T04:54:31;100698.97;;;26.28;30.51
59240;BME280;45010;53.640;10.578;2024-02-14T04:57:32;100704.56;;;26.27;29.76
59240;BME280;45010;53.640;10.578;2024-02-14T05:00:35;100700.81;;;26.28;30.15
59240;BME280;45010;53.640;10.578;2024-02-14T05:03:35;100696.53;;;26.27;29.73
59240;BME280;45010;53.640;10.578;2024-02-14T05:06:36;100693.88;;;26.27;30.06
59240;BME280;45010;53.640;10.578;2024-02-14T05:09:38;100692.25;;;26.26;30.11
59240;BME280;45010;53.640;10.578;2024-02-14T05:12:40;100684.22;;;26.26;29.90
59240;BME280;45010;53.640;10.578;2024-02-14T05:15:40;100684.22;;;26.26;29.82
59240;BME280;45010;53.640;10.578;2024-02-14T05:18:41;100681.56;;;26.26;29.82
59240;BME280;45010;53.640;10.578;2024-02-14T05:21:41;100682.38;;;26.26;30.02
59240;BME280;45010;53.640;10.578;2024-02-14T05:24:41;100686.91;;;26.26;29.93
59240;BME280;45010;53.640;10.578;2024-02-14T05:27:42;100685.28;;;26.25;29.73
59240;BME280;45010;53.640;10.578;2024-02-14T05:30:42;100686.91;;;26.26;30.02
59240;BME280;45010;53.640;10.578;2024-02-14T05:33:43;100687.72;;;26.26;29.88
59240;BME280;45010;53.640;10.578;2024-02-14T05:36:43;100673.53;;;26.26;30.04
59240;BME280;45010;53.640;10.578;2024-02-14T05:39:45;100673.53;;;26.26;29.86
59240;BME280;45010;53.640;10.578;2024-02-14T05:42:46;100669.25;;;26.25;30.03
59240;BME280;45010;53.640;10.578;2024-02-14T05:45:46;100653.22;;;26.25;30.05
59240;BME280;45010;53.640;10.578;2024-02-14T05:48:47;100657.72;;;26.24;29.98
59240;BME280;45010;53.640;10.578;2024-02-14T05:51:48;100651.59;;;26.24;30.12
59240;BME280;45010;53.640;10.578;2024-02-14T05:54:50;100653.22;;;26.25;30.07
59240;BME280;45010;53.640;10.578;2024-02-14T05:57:51;100652.03;;;26.21;30.11
59240;BME280;45010;53.640;10.578;2024-02-14T06:00:52;100659.34;;;26.25;29.79
59240;BME280;45010;53.640;10.578;2024-02-14T06:03:52;100651.59;;;26.24;29.94
59240;BME280;45010;53.640;10.578;2024-02-14T06:06:53;100649.47;;;26.26;29.76
59240;BME280;45010;53.640;10.578;2024-02-14T06:09:53;100634.38;;;26.19;29.84
59240;BME280;45010;53.640;10.578;2024-02-14T06:12:54;100648.66;;;26.25;30.16
59240;BME280;45010;53.640;10.578;2024-02-14T06:15:54;100586.28;;;25.85;30.05
59240;BME280;45010;53.640;10.578;2024-02-14T06:18:54;100648.66;;;26.25;29.86
59240;BME280;45010;53.640;10.578;2024-02-14T06:21:54;100644.13;;;26.26;29.80
59240;BME280;45010;53.640;10.578;2024-02-14T06:24:55;100648.66;;;26.25;29.88
59240;BME280;45010;53.640;10.578;2024-02-14T06:27:55;100648.66;;;26.25;30.16
59240;BME280;45010;53.640;10.578;2024-02-14T06:30:55;100654.00;;;26.25;30.07
59240;BME280;45010;53.640;10.578;2024-02-14T06:33:56;100640.63;;;26.25;30.20
59240;BME280;45010;53.640;10.578;2024-02-14T06:36:56;100633.44;;;26.26;30.17
59240;BME280;45010;53.640;10.578;2024-02-14T06:39:56;100644.13;;;26.26;29.96
59240;BME280;45010;53.640;10.578;2024-02-14T06:42:57;100638.78;;;26.26;29.95
59240;BME280;45010;53.640;10.578;2024-02-14T06:45:58;100644.13;;;26.26;30.06
59240;BME280;45010;53.640;10.578;2024-02-14T06:48:58;100645.06;;;26.19;30.24
59240;BME280;45010;53.640;10.578;2024-02-14T06:51:58;100644.59;;;26.23;30.48
59240;BME280;45010;53.640;10.578;2024-02-14T06:54:59;100645.75;;;26.27;30.04
59240;BME280;45010;53.640;10.578;2024-02-14T06:57:59;100648.41;;;26.27;29.77
59240;BME280;45010;53.640;10.578;2024-02-14T07:01:00;100637.63;;;26.22;30.13
59240;BME280;45010;53.640;10.578;2024-02-14T07:04:00;100651.09;;;26.27;30.02
59240;BME280;45010;53.640;10.578;2024-02-14T07:07:01;100650.31;;;26.26;30.24
59240;BME280;45010;53.640;10.578;2024-02-14T07:10:01;100636.66;;;26.28;30.25
59240;BME280;45010;53.640;10.578;2024-02-14T07:13:02;100630.22;;;26.24;30.06
59240;BME280;45010;53.640;10.578;2024-02-14T07:16:03;100647.34;;;26.28;29.88
59240;BME280;45010;53.640;10.578;2024-02-14T07:19:03;100642.00;;;26.28;30.04
59240;BME280;45010;53.640;10.578;2024-02-14T07:22:04;100639.34;;;26.28;30.24
59240;BME280;45010;53.640;10.578;2024-02-14T07:25:04;100629.72;;;26.27;30.02
59240;BME280;45010;53.640;10.578;2024-02-14T07:28:05;100639.34;;;26.28;29.98
59240;BME280;45010;53.640;10.578;2024-02-14T07:31:05;100643.66;;;26.29;30.00
59240;BME280;45010;53.640;10.578;2024-02-14T07:34:06;100628.56;;;26.23;30.17
59240;BME280;45010;53.640;10.578;2024-02-14T07:37:06;100638.31;;;26.29;29.94
59240;BME280;45010;53.640;10.578;2024-02-14T07:40:07;100630.53;;;26.27;30.26
59240;BME280;45010;53.640;10.578;2024-02-14T07:43:08;100630.28;;;26.29;30.02
59240;BME280;45010;53.640;10.578;2024-02-14T07:46:08;100624.34;;;26.27;29.93
59240;BME280;45010;53.640;10.578;2024-02-14T07:49:08;100631.31;;;26.28;30.57
59240;BME280;45010;53.640;10.578;2024-02-14T07:52:10;100625.19;;;26.27;30.05
59240;BME280;45010;53.640;10.578;2024-02-14T07:55:11;100619.84;;;26.27;30.45
59240;BME280;45010;53.640;10.578;2024-02-14T07:58:12;100619.84;;;26.27;30.09
59240;BME280;45010;53.640;10.578;2024-02-14T08:01:13;100617.41;;;26.26;30.25
59240;BME280;45010;53.640;10.578;2024-02-14T08:04:13;100621.69;;;26.27;30.36
59240;BME280;45010;53.640;10.578;2024-02-14T08:07:13;100612.06;;;26.26;30.40
59240;BME280;45010;53.640;10.578;2024-02-14T08:10:14;100623.28;;;26.28;30.10
59240;BME280;45010;53.640;10.578;2024-02-14T08:13:14;100624.34;;;26.27;30.09
59240;BME280;45010;53.640;10.578;2024-02-14T08:16:16;100619.00;;;26.27;30.68
59240;BME280;45010;53.640;10.578;2024-02-14T08:19:17;100616.34;;;26.27;30.38
59240;BME280;45010;53.640;10.578;2024-02-14T08:22:18;100613.66;;;26.27;30.50
59240;BME280;45010;53.640;10.578;2024-02-14T08:25:18;100619.00;;;26.27;30.38
59240;BME280;45010;53.640;10.578;2024-02-14T08:28:19;100610.44;;;26.25;30.65
59240;BME280;45010;53.640;10.578;2024-02-14T08:31:20;100607.19;;;26.23;30.14
59240;BME280;45010;53.640;10.578;2024-02-14T08:34:20;100610.44;;;26.25;30.42
59240;BME280;45010;53.640;10.578;2024-02-14T08:37:21;100611.50;;;26.24;30.76
59240;BME280;45010;53.640;10.578;2024-02-14T08:40:21;100612.06;;;26.26;30.65
59240;BME280;45010;53.640;10.578;2024-02-14T08:43:22;100600.06;;;26.11;30.72
59240;BME280;45010;53.640;10.578;2024-02-14T08:46:25;100614.16;;;26.24;30.65
59240;BME280;45010;53.640;10.578;2024-02-14T08:49:25;100614.16;;;26.24;30.49
59240;BME280;45010;53.640;10.578;2024-02-14T08:52:25;100607.41;;;26.21;30.52
59240;BME280;45010;53.640;10.578;2024-02-14T08:55:26;100613.34;;;26.23;30.56
59240;BME280;45010;53.640;10.578;2024-02-14T08:58:27;100612.53;;;26.23;30.50
59240;BME280;45010;53.640;10.578;2024-02-14T09:01:30;100616.22;;;26.22;30.32
59240;BME280;45010;53.640;10.578;2024-02-14T09:04:31;100592.59;;;26.13;30.40
59240;BME280;45010;53.640;10.578;2024-02-14T09:07:31;100591.97;;;26.06;30.30
59240;BME280;45010;53.640;10.578;2024-02-14T09:10:33;100614.63;;;26.21;30.24
59240;BME280;45010;53.640;10.578;2024-02-14T09:13:34;100614.63;;;26.21;30.33
59240;BME280;45010;53.640;10.578;2024-02-14T09:16:34;100617.22;;;26.15;30.30
59240;BME280;45010;53.640;10.578;2024-02-14T09:19:34;100598.91;;;26.07;30.25
59240;BME280;45010;53.640;10.578;2024-02-14T09:22:36;100601.09;;;26.10;30.39
59240;BME280;45010;53.640;10.578;2024-02-14T09:25:36;100614.06;;;26.18;30.89
59240;BME280;45010;53.640;10.578;2024-02-14T09:28:40;100608.63;;;26.13;30.92
59240;BME280;45010;53.640;10.578;2024-02-14T09:31:40;100597.00;;;26.02;30.94
59240;BME280;45010;53.640;10.578;2024-02-14T09:34:40;100618.34;;;26.19;31.13
59240;BME280;45010;53.640;10.578;2024-02-14T09:37:41;100622.63;;;26.21;31.54
59240;BME280;45010;53.640;10.578;2024-02-14T09:40:41;100618.91;;;26.22;31.44
59240;BME280;45010;53.640;10.578;2024-02-14T09:43:44;100617.88;;;26.23;31.18
59240;BME280;45010;53.640;10.578;2024-02-14T09:46:45;100615.78;;;26.25;31.30
59240;BME280;45010;53.640;10.578;2024-02-14T09:49:46;100616.09;;;26.28;31.37
59240;BME280;45010;53.640;10.578;2024-02-14T09:52:50;100609.13;;;26.27;31.44
59240;BME280;45010;53.640;10.578;2024-02-14T09:55:50;100615.94;;;26.35;31.28
59240;BME280;45010;53.640;10.578;2024-02-14T09:58:51;100614.59;;;26.38;31.06
59240;BME280;45010;53.640;10.578;2024-02-14T10:01:56;100614.28;;;26.34;30.81
59240;BME280;45010;53.640;10.578;2024-02-14T10:04:57;100614.94;;;26.41;30.83
59240;BME280;45010;53.640;10.578;2024-02-14T10:07:57;100625.16;;;26.44;30.57
59240;BME280;45010;53.640;10.578;2024-02-14T10:10:58;100625.47;;;26.48;30.90
59240;BME280;45010;53.640;10.578;2024-02-14T10:14:04;100625.75;;;26.52;30.84
59240;BME280;45010;53.640;10.578;2024-02-14T10:17:17;100612.66;;;26.50;30.67
59240;BME280;45010;53.640;10.578;2024-02-14T10:20:18;100627.47;;;26.58;30.70
59240;BME280;45010;53.640;10.578;2024-02-14T10:23:18;100624.31;;;26.61;30.40
59240;BME280;45010;53.640;10.578;2024-02-14T10:26:20;100618.94;;;26.61;30.26
59240;BME280;45010;53.640;10.578;2024-02-14T10:29:20;100630.28;;;26.68;30.55
59240;BME280;45010;53.640;10.578;2024-02-14T10:32:22;100610.38;;;26.59;30.25
59240;BME280;45010;53.640;10.578;2024-02-14T10:35:24;100629.28;;;26.75;30.17
59240;BME280;45010;53.640;10.578;2024-02-14T10:38:25;100633.56;;;26.76;30.33
59240;BME280;45010;53.640;10.578;2024-02-14T10:41:30;100633.56;;;26.76;30.10
59240;BME280;45010;53.640;10.578;2024-02-14T10:44:35;100643.22;;;26.77;29.97
59240;BME280;45010;53.640;10.578;2024-02-14T10:47:36;100641.91;;;26.79;30.56
59240;BME280;45010;53.640;10.578;2024-02-14T10:50:42;100636.25;;;26.76;30.65
59240;BME280;45010;53.640;10.578;2024-02-14T10:53:46;100641.72;;;26.86;30.28
59240;BME280;45010;53.640;10.578;2024-02-14T10:56:49;100648.69;;;26.87;30.13
59240;BME280;45010;53.640;10.578;2024-02-14T10:59:52;100635.88;;;26.89;30.02
59240;BME280;45010;53.640;10.578;2024-02-14T11:02:53;100635.41;;;26.92;30.08
59240;BME280;45010;53.640;10.578;2024-02-14T11:05:54;100637.03;;;26.93;30.52
59240;BME280;45010;53.640;10.578;2024-02-14T11:09:04;100647.25;;;26.96;30.09
59240;BME280;45010;53.640;10.578;2024-02-14T11:12:10;100637.59;;;26.95;30.32
59240;BME280;45010;53.640;10.578;2024-02-14T11:15:19;100632.75;;;26.92;30.13
59240;BME280;45010;53.640;10.578;2024-02-14T11:18:28;100640.06;;;27.02;30.08
59240;BME280;45010;53.640;10.578;2024-02-14T11:21:35;100638.78;;;27.05;30.22
59240;BME280;45010;53.640;10.578;2024-02-14T11:24:37;100643.63;;;27.08;30.22
59240;BME280;45010;53.640;10.578;2024-02-14T11:27:44;100615.38;;;26.95;30.37
59240;BME280;45010;53.640;10.578;2024-02-14T11:30:45;100637.75;;;27.11;30.46
59240;BME280;45010;53.640;10.578;2024-02-14T11:33:45;100634.84;;;27.12;30.27
59240;BME280;45010;53.640;10.578;2024-02-14T11:36:46;100634.59;;;27.14;30.28
59240;BME280;45010;53.640;10.578;2024-02-14T11:39:46;100642.63;;;27.14;30.35
59240;BME280;45010;53.640;10.578;2024-02-14T11:42:47;100630.81;;;27.10;29.90
59240;BME280;45010;53.640;10.578;2024-02-14T11:45:47;100639.97;;;27.14;29.77
59240;BME280;45010;53.640;10.578;2024-02-14T11:48:50;100645.84;;;27.16;29.83
59240;BME280;45010;53.640;10.578;2024-02-14T11:51:53;100647.47;;;27.17;30.10
59240;BME280;45010;53.640;10.578;2024-02-14T11:54:53;100649.09;;;27.18;29.77
59240;BME280;45010;53.640;10.578;2024-02-14T11:57:53;100650.69;;;27.19;29.95
59240;BME280;45010;53.640;10.578;2024-02-14T12:00:54;100651.28;;;27.21;29.97
59240;BME280;45010;53.640;10.578;2024-02-14T12:03:54;100653.94;;;27.21;29.67
59240;BME280;45010;53.640;10.578;2024-02-14T12:06:54;100655.00;;;27.20;29.84
59240;BME280;45010;53.640;10.578;2024-02-14T12:09:55;100654.19;;;27.20;29.96
59240;BME280;45010;53.640;10.578;2024-02-14T12:12:55;100654.44;;;27.18;29.96
59240;BME280;45010;53.640;10.578;2024-02-14T12:15:56;100665.16;;;27.18;30.23
59240;BME280;45010;53.640;10.578;2024-02-14T12:19:07;100654.97;;;27.15;30.04
59240;BME280;45010;53.640;10.578;2024-02-14T12:22:10;100648.00;;;27.14;30.23
59240;BME280;45010;53.640;10.578;2024-02-14T12:25:17;100654.44;;;27.18;30.14
59240;BME280;45010;53.640;10.578;2024-02-14T12:28:19;100659.31;;;27.21;29.90
59240;BME280;45010;53.640;10.578;2024-02-14T12:31:23;100655.56;;;27.22;30.00
59240;BME280;45010;53.640;10.578;2024-02-14T12:34:23;100666.03;;;27.24;30.27
59240;BME280;45010;53.640;10.578;2024-02-14T12:37:23;100664.16;;;27.24;29.86
59240;BME280;45010;53.640;10.578;2024-02-14T12:40:24;100662.53;;;27.23;30.27
59240;BME280;45010;53.640;10.578;2024-02-14T12:43:24;100665.78;;;27.25;29.98
59240;BME280;45010;53.640;10.578;2024-02-14T12:46:24;100662.84;;;27.27;30.18
59240;BME280;45010;53.640;10.578;2024-02-14T12:49:25;100666.09;;;27.29;29.67
59240;BME280;45010;53.640;10.578;2024-02-14T12:52:27;100665.81;;;27.31;30.13
59240;BME280;45010;53.640;10.578;2024-02-14T12:55:28;100666.41;;;27.33;29.80
59240;BME280;45010;53.640;10.578;2024-02-14T12:58:28;100663.72;;;27.33;29.70
59240;BME280;45010;53.640;10.578;2024-02-14T13:01:29;100668.31;;;27.37;29.90
59240;BME280;45010;53.640;10.578;2024-02-14T13:04:29;100670.16;;;27.37;29.94
59240;BME280;45010;53.640;10.578;2024-02-14T13:07:31;100662.13;;;27.37;30.23
59240;BME280;45010;53.640;10.578;2024-02-14T13:10:32;100672.84;;;27.37;29.88
59240;BME280;45010;53.640;10.578;2024-02-14T13:13:32;100671.81;;;27.38;30.42
59240;BME280;45010;53.640;10.578;2024-02-14T13:16:32;100677.72;;;27.40;29.86
59240;BME280;45010;53.640;10.578;2024-02-14T13:19:33;100673.97;;;27.41;29.79
59240;BME280;45010;53.640;10.578;2024-02-14T13:22:33;100673.97;;;27.41;30.25
59240;BME280;45010;53.640;10.578;2024-02-14T13:25:33;100665.63;;;27.37;30.07
59240;BME280;45010;53.640;10.578;2024-02-14T13:28:34;100677.19;;;27.43;29.89
59240;BME280;45010;53.640;10.578;2024-02-14T13:31:35;100680.44;;;27.45;30.25
59240;BME280;45010;53.640;10.578;2024-02-14T13:34:35;100678.84;;;27.44;30.34
59240;BME280;45010;53.640;10.578;2024-02-14T13:37:35;100673.47;;;27.44;30.44
59240;BME280;45010;53.640;10.578;2024-02-14T13:40:36;100677.78;;;27.45;30.51
59240;BME280;45010;53.640;10.578;2024-02-14T13:43:36;100679.94;;;27.48;30.22
59240;BME280;45010;53.640;10.578;2024-02-14T13:46:37;100680.75;;;27.49;30.13
59240;BME280;45010;53.640;10.578;2024-02-14T13:49:37;100677.00;;;27.50;30.06
59240;BME280;45010;53.640;10.578;2024-02-14T13:52:38;100677.81;;;27.50;30.28
59240;BME280;45010;53.640;10.578;2024-02-14T13:55:38;100672.47;;;27.50;30.18
59240;BME280;45010;53.640;10.578;2024-02-14T13:58:39;100680.22;;;27.52;30.08
59240;BME280;45010;53.640;10.578;2024-02-14T14:01:40;100669.22;;;27.48;30.50
59240;BME280;45010;53.640;10.578;2024-02-14T14:04:41;100681.59;;;27.55;30.38
59240;BME280;45010;53.640;10.578;2024-02-14T14:07:41;100663.56;;;27.45;30.33
59240;BME280;45010;53.640;10.578;2024-02-14T14:10:42;100683.81;;;27.58;30.14
59240;BME280;45010;53.640;10.578;2024-02-14T14:13:43;100680.06;;;27.59;29.73
59240;BME280;45010;53.640;10.578;2024-02-14T14:16:43;100689.72;;;27.60;29.94
59240;BME280;45010;53.640;10.578;2024-02-14T14:19:43;100678.75;;;27.61;29.89
59240;BME280;45010;53.640;10.578;2024-02-14T14:22:44;100691.91;;;27.63;30.11
59240;BME280;45010;53.640;10.578;2024-02-14T14:25:44;100691.63;;;27.64;30.27
59240;BME280;45010;53.640;10.578;2024-02-14T14:28:44;100692.22;;;27.66;29.93
59240;BME280;45010;53.640;10.578;2024-02-14T14:31:45;100684.97;;;27.67;30.13
59240;BME280;45010;53.640;10.578;2024-02-14T14:34:45;100686.03;;;27.66;29.99
59240;BME280;45010;53.640;10.578;2024-02-14T14:37:46;100696.25;;;27.69;29.99
59240;BME280;45010;53.640;10.578;2024-02-14T14:40:47;100692.50;;;27.70;29.82
59240;BME280;45010;53.640;10.578;2024-02-14T14:43:47;100694.13;;;27.71;30.17
59240;BME280;45010;53.640;10.578;2024-02-14T14:46:49;100697.63;;;27.72;30.13
59240;BME280;45010;53.640;10.578;2024-02-14T14:49:50;100700.03;;;27.73;29.80
59240;BME280;45010;53.640;10.578;2024-02-14T14:52:50;100709.72;;;27.74;29.63
59240;BME280;45010;53.640;10.578;2024-02-14T14:55:51;100702.72;;;27.73;29.75
59240;BME280;45010;53.640;10.578;2024-02-14T14:58:52;100700.03;;;27.73;30.03
59240;BME280;45010;53.640;10.578;2024-02-14T15:01:52;100700.59;;;27.75;30.06
59240;BME280;45010;53.640;10.578;2024-02-14T15:04:54;100706.75;;;27.76;29.56
59240;BME280;45010;53.640;10.578;2024-02-14T15:07:54;100708.41;;;27.77;29.89
59240;BME280;45010;53.640;10.578;2024-02-14T15:10:54;100697.69;;;27.77;29.72
59240;BME280;45010;53.640;10.578;2024-02-14T15:13:58;100702.22;;;27.76;29.48
59240;BME280;45010;53.640;10.578;2024-02-14T15:16:58;100703.81;;;27.77;29.78
59240;BME280;45010;53.640;10.578;2024-02-14T15:19:59;100700.06;;;27.78;29.87
59240;BME280;45010;53.640;10.578;2024-02-14T15:22:59;100708.69;;;27.81;29.59
59240;BME280;45010;53.640;10.578;2024-02-14T15:25:59;100708.69;;;27.81;29.58
59240;BME280;45010;53.640;10.578;2024-02-14T15:29:03;100706.00;;;27.81;29.80
59240;BME280;45010;53.640;10.578;2024-02-14T15:32:23;100714.53;;;27.77;30.05
59240;BME280;45010;53.640;10.578;2024-02-14T15:35:41;100714.53;;;27.77;29.94